createdAt,value
2022-08-14T00:00:37.331Z,20.06
2022-08-14T00:02:58.873Z,20.08
2022-08-14T00:05:22.201Z,20.17
2022-08-14T00:07:44.543Z,19.92
2022-08-14T00:10:49.962Z,19.85
2022-08-14T00:12:56.815Z,19.83
2022-08-14T00:15:22.926Z,19.63
2022-08-14T00:17:48.365Z,19.59
2022-08-14T00:20:15.599Z,19.59
2022-08-14T00:22:57.490Z,19.59
2022-08-14T00:25:19.920Z,19.58
2022-08-14T00:27:42.450Z,19.48
2022-08-14T00:30:07.932Z,19.49
2022-08-14T00:32:50.249Z,19.48
2022-08-14T00:35:13.827Z,19.49
2022-08-14T00:37:41.966Z,19.54
2022-08-14T00:40:18.829Z,19.45
2022-08-14T00:42:55.627Z,19.29
2022-08-14T00:45:18.638Z,19.21
2022-08-14T00:47:46.836Z,19.19
2022-08-14T00:50:17.533Z,19.12
2022-08-14T00:52:40.211Z,19.13
2022-08-14T00:55:03.081Z,19.16
2022-08-14T00:57:27.972Z,19.20
2022-08-14T00:59:50.800Z,19.08
2022-08-14T01:02:15.817Z,18.97
2022-08-14T01:04:53.835Z,18.84
2022-08-14T01:07:24.957Z,18.81
2022-08-14T01:09:50.791Z,18.80
2022-08-14T01:12:13.187Z,18.82
2022-08-14T01:14:55.247Z,18.85
2022-08-14T01:17:19.791Z,18.74
2022-08-14T01:20:02.374Z,18.72
2022-08-14T01:22:27.021Z,18.68
2022-08-14T01:24:51.567Z,18.71
2022-08-14T01:27:22.375Z,18.89
2022-08-14T01:30:03.581Z,18.85
2022-08-14T01:32:26.231Z,18.58
2022-08-14T01:35:19.420Z,18.48
2022-08-14T01:37:38.195Z,18.58
2022-08-14T01:40:06.487Z,18.61
2022-08-14T01:42:36.054Z,18.37
2022-08-14T01:44:58.595Z,18.33
2022-08-14T01:47:22.224Z,18.40
2022-08-14T01:49:46.542Z,18.42
2022-08-14T01:52:34.527Z,18.39
2022-08-14T01:55:06.788Z,18.25
2022-08-14T01:57:49.584Z,18.20
2022-08-14T02:00:16.696Z,18.20
2022-08-14T02:02:39.769Z,18.23
2022-08-14T02:05:02.759Z,18.27
2022-08-14T02:07:44.941Z,18.13
2022-08-14T02:10:07.939Z,18.08
2022-08-14T02:12:34.904Z,18.14
2022-08-14T02:15:00.171Z,18.22
2022-08-14T02:17:23.653Z,18.16
2022-08-14T02:19:45.085Z,17.98
2022-08-14T02:22:08.856Z,17.94
2022-08-14T02:24:39.408Z,17.93
2022-08-14T02:28:26.018Z,17.90
2022-08-14T02:29:59.439Z,17.93
2022-08-14T02:32:36.333Z,17.99
2022-08-14T02:35:00.719Z,17.89
2022-08-14T02:37:22.316Z,17.75
2022-08-14T02:39:45.644Z,17.72
2022-08-14T02:42:12.987Z,17.73
2022-08-14T02:44:39.853Z,17.70
2022-08-14T02:47:02.957Z,17.63
2022-08-14T02:49:33.978Z,17.61
2022-08-14T02:51:57.263Z,17.68
2022-08-14T02:54:19.858Z,17.74
2022-08-14T02:57:15.809Z,17.61
2022-08-14T02:59:25.600Z,17.53
2022-08-14T03:01:54.798Z,17.57
2022-08-14T03:04:17.750Z,17.69
2022-08-14T03:06:57.974Z,17.48
2022-08-14T03:09:42.389Z,17.42
2022-08-14T03:12:09.027Z,17.32
2022-08-14T03:14:30.776Z,17.33
2022-08-14T03:16:53.629Z,17.36
2022-08-14T03:19:15.123Z,17.38
2022-08-14T03:21:41.182Z,17.54
2022-08-14T03:24:03.820Z,17.57
2022-08-14T03:26:29.695Z,17.38
2022-08-14T03:28:52.638Z,17.29
2022-08-14T03:31:15.122Z,17.32
2022-08-14T03:33:40.258Z,17.29
2022-08-14T03:37:28.551Z,17.21
2022-08-14T03:39:14.228Z,17.26
2022-08-14T03:41:28.393Z,17.17
2022-08-14T03:44:01.589Z,17.17
2022-08-14T03:46:54.472Z,17.24
2022-08-14T03:49:24.167Z,17.24
2022-08-14T03:51:50.496Z,17.20
2022-08-14T03:54:20.431Z,17.02
2022-08-14T03:56:45.135Z,16.94
2022-08-14T03:59:18.043Z,16.93
2022-08-14T04:01:45.811Z,16.95
2022-08-14T04:04:19.713Z,17.05
2022-08-14T04:06:47.744Z,16.95
2022-08-14T04:09:10.596Z,16.98
2022-08-14T04:11:32.067Z,17.01
2022-08-14T04:13:54.366Z,16.94
2022-08-14T04:16:20.571Z,16.96
2022-08-14T04:18:44.803Z,16.93
2022-08-14T04:21:07.389Z,16.86
2022-08-14T04:23:33.472Z,16.89
2022-08-14T04:25:55.218Z,17.05
2022-08-14T04:29:05.258Z,17.11
2022-08-14T04:30:59.523Z,16.98
2022-08-14T04:33:24.513Z,16.87
2022-08-14T04:35:56.511Z,16.79
2022-08-14T04:38:39.966Z,16.80
2022-08-14T04:41:20.471Z,16.83
2022-08-14T04:43:43.338Z,16.90
2022-08-14T04:46:06.889Z,16.93
2022-08-14T04:48:38.855Z,16.95
2022-08-14T04:51:06.935Z,17.02
2022-08-14T04:53:35.394Z,17.14
2022-08-14T04:55:57.720Z,17.20
2022-08-14T04:58:21.536Z,17.21
2022-08-14T05:00:56.235Z,17.22
2022-08-14T05:03:21.262Z,17.25
2022-08-14T05:05:43.980Z,17.28
2022-08-14T05:08:31.779Z,17.20
2022-08-14T05:10:56.750Z,17.14
2022-08-14T05:13:20.237Z,17.19
2022-08-14T05:15:47.938Z,17.22
2022-08-14T05:18:17.222Z,17.26
2022-08-14T05:21:58.099Z,17.34
2022-08-14T05:23:30.192Z,17.43
2022-08-14T05:25:56.085Z,17.51
2022-08-14T05:28:21.070Z,17.58
2022-08-14T05:30:43.734Z,17.60
2022-08-14T05:33:06.373Z,17.65
2022-08-14T05:35:28.961Z,17.72
2022-08-14T05:37:50.392Z,17.79
2022-08-14T05:40:12.140Z,17.87
2022-08-14T05:42:34.568Z,17.93
2022-08-14T05:44:56.264Z,17.96
2022-08-14T05:47:17.761Z,18.03
2022-08-14T05:49:40.835Z,18.13
2022-08-14T05:52:02.862Z,18.24
2022-08-14T05:54:26.586Z,18.36
2022-08-14T05:56:48.729Z,18.52
2022-08-14T05:59:13.313Z,18.69
2022-08-14T06:01:38.502Z,18.68
2022-08-14T06:04:00.335Z,18.74
2022-08-14T06:06:21.823Z,18.86
2022-08-14T06:08:43.353Z,18.96
2022-08-14T06:11:07.760Z,19.02
2022-08-14T06:13:31.472Z,19.10
2022-08-14T06:15:53.389Z,19.21
2022-08-14T06:18:17.513Z,19.32
2022-08-14T06:20:40.005Z,19.42
2022-08-14T06:23:02.541Z,19.54
2022-08-14T06:25:25.017Z,19.57
2022-08-14T06:27:48.833Z,19.65
2022-08-14T06:30:14.971Z,19.71
2022-08-14T06:32:39.319Z,19.81
2022-08-14T06:35:13.239Z,19.90
2022-08-14T06:37:51.904Z,20.00
2022-08-14T06:40:26.265Z,20.19
2022-08-14T06:42:49.945Z,20.22
2022-08-14T06:45:12.349Z,20.29
2022-08-14T06:47:38.679Z,20.37
2022-08-14T06:50:07.625Z,20.46
2022-08-14T06:52:30.082Z,20.53
2022-08-14T06:54:52.012Z,20.65
2022-08-14T06:57:13.942Z,20.72
2022-08-14T06:59:35.637Z,20.83
2022-08-14T07:02:17.856Z,20.94
2022-08-14T07:04:59.123Z,21.06
2022-08-14T07:07:20.595Z,21.25
2022-08-14T07:09:50.740Z,21.37
2022-08-14T07:12:54.742Z,21.45
2022-08-14T07:15:00.993Z,21.55
2022-08-14T07:17:22.777Z,21.67
2022-08-14T07:19:44.483Z,21.91
2022-08-14T07:22:17.467Z,22.02
2022-08-14T07:24:42.027Z,22.29
2022-08-14T07:27:03.609Z,22.50
2022-08-14T07:29:26.503Z,22.61
2022-08-14T07:31:50.334Z,22.91
2022-08-14T07:34:36.646Z,23.03
2022-08-14T07:37:00.877Z,23.21
2022-08-14T07:39:27.468Z,23.37
2022-08-14T07:41:49.644Z,23.63
2022-08-14T07:44:32.196Z,23.67
2022-08-14T07:46:52.953Z,23.97
2022-08-14T07:49:17.824Z,24.06
2022-08-14T07:51:40.442Z,24.13
2022-08-14T07:54:02.013Z,24.36
2022-08-14T07:56:46.780Z,24.59
2022-08-14T07:59:09.065Z,24.62
2022-08-14T08:01:31.734Z,24.80
2022-08-14T08:03:59.421Z,25.07
2022-08-14T08:06:22.373Z,25.07
2022-08-14T08:09:01.341Z,25.28
2022-08-14T08:11:27.506Z,25.50
2022-08-14T08:13:59.522Z,25.71
2022-08-14T08:16:24.407Z,25.68
2022-08-14T08:18:45.896Z,25.85
2022-08-14T08:21:08.432Z,25.92
2022-08-14T08:23:39.992Z,25.91
2022-08-14T08:26:01.836Z,25.99
2022-08-14T08:28:26.639Z,26.03
2022-08-14T08:30:52.827Z,26.19
2022-08-14T08:33:17.763Z,26.49
2022-08-14T08:35:47.063Z,26.59
2022-08-14T08:39:17.791Z,26.67
2022-08-14T08:41:00.103Z,26.64
2022-08-14T08:43:30.169Z,26.77
2022-08-14T08:46:04.027Z,26.79
2022-08-14T08:48:37.097Z,27.19
2022-08-14T08:51:03.640Z,27.26
2022-08-14T08:53:34.233Z,27.24
2022-08-14T08:55:56.845Z,27.30
2022-08-14T08:58:24.789Z,27.44
2022-08-14T09:00:50.083Z,27.74
2022-08-14T09:03:20.474Z,27.91
2022-08-14T09:05:54.516Z,27.98
2022-08-14T09:08:31.917Z,28.16
2022-08-14T09:10:56.495Z,28.22
2022-08-14T09:13:19.396Z,28.31
2022-08-14T09:15:43.645Z,28.31
2022-08-14T09:18:06.086Z,28.35
2022-08-14T09:20:30.659Z,28.50
2022-08-14T09:22:53.732Z,28.73
2022-08-14T09:25:19.703Z,28.81
2022-08-14T09:27:41.522Z,28.92
2022-08-14T09:30:12.688Z,28.88
2022-08-14T09:33:22.484Z,28.87
2022-08-14T09:36:05.972Z,28.95
2022-08-14T09:38:58.854Z,29.16
2022-08-14T09:42:21.075Z,29.26
2022-08-14T09:44:54.437Z,29.43
2022-08-14T09:47:17.264Z,29.59
2022-08-14T09:49:39.969Z,29.86
2022-08-14T09:52:33.455Z,29.94
2022-08-14T09:54:52.395Z,30.11
2022-08-14T09:57:28.937Z,29.95
2022-08-14T09:59:51.065Z,30.21
2022-08-14T10:02:21.802Z,30.10
2022-08-14T10:04:46.349Z,30.17
2022-08-14T10:07:12.404Z,30.21
2022-08-14T10:09:35.152Z,30.33
2022-08-14T10:11:59.747Z,30.37
2022-08-14T10:14:35.172Z,30.46
2022-08-14T10:16:58.540Z,30.57
2022-08-14T10:19:24.149Z,30.89
2022-08-14T10:23:15.552Z,30.77
2022-08-14T10:24:50.998Z,31.05
2022-08-14T10:27:25.033Z,31.02
2022-08-14T10:29:50.936Z,31.38
2022-08-14T10:32:17.852Z,31.50
2022-08-14T10:34:41.052Z,31.81
2022-08-14T10:37:14.258Z,31.82
2022-08-14T10:39:38.572Z,31.83
2022-08-14T10:42:18.341Z,31.97
2022-08-14T10:44:52.600Z,31.94
2022-08-14T10:47:40.819Z,32.05
2022-08-14T10:49:59.946Z,31.96
2022-08-14T10:52:25.544Z,32.13
2022-08-14T10:54:48.345Z,32.35
2022-08-14T10:57:21.821Z,32.45
2022-08-14T10:59:56.006Z,32.44
2022-08-14T11:02:54.350Z,32.65
2022-08-14T11:05:18.696Z,32.90
2022-08-14T11:07:55.312Z,32.99
2022-08-14T11:10:17.797Z,33.04
2022-08-14T11:12:49.754Z,33.26
2022-08-14T11:15:11.254Z,33.33
2022-08-14T11:17:36.188Z,33.57
2022-08-14T11:20:00.138Z,33.47
2022-08-14T11:22:56.232Z,33.58
2022-08-14T11:25:06.743Z,33.33
2022-08-14T11:27:33.380Z,33.70
2022-08-14T11:30:49.217Z,33.81
2022-08-14T11:32:48.734Z,33.99
2022-08-14T11:35:18.210Z,34.00
2022-08-14T11:37:49.643Z,33.96
2022-08-14T11:40:20.015Z,34.03
2022-08-14T11:42:59.457Z,34.48
2022-08-14T11:45:26.704Z,34.59
2022-08-14T11:48:12.779Z,34.84
2022-08-14T11:50:38.361Z,35.14
2022-08-14T11:53:04.304Z,35.16
2022-08-14T11:55:27.148Z,35.50
2022-08-14T11:58:03.417Z,35.87
2022-08-14T12:00:32.137Z,35.87
2022-08-14T12:03:04.043Z,35.85
2022-08-14T12:05:30.978Z,36.16
2022-08-14T12:07:54.920Z,36.22
2022-08-14T12:10:26.233Z,36.05
2022-08-14T12:12:50.283Z,36.15
2022-08-14T12:15:12.617Z,36.01
2022-08-14T12:17:47.568Z,35.83
2022-08-14T12:20:11.641Z,35.76
2022-08-14T12:22:40.115Z,35.99
2022-08-14T12:25:10.965Z,35.61
2022-08-14T12:27:51.920Z,35.72
2022-08-14T12:30:39.449Z,35.60
2022-08-14T12:33:04.234Z,35.76
2022-08-14T12:35:43.301Z,35.64
2022-08-14T12:38:04.794Z,35.49
2022-08-14T12:40:28.848Z,35.56
2022-08-14T12:42:56.627Z,36.22
2022-08-14T12:45:20.440Z,36.48
2022-08-14T12:47:43.730Z,37.52
2022-08-14T12:50:13.196Z,38.47
2022-08-14T12:52:54.165Z,38.64
2022-08-14T12:55:32.528Z,38.54
2022-08-14T12:58:35.432Z,38.59
2022-08-14T13:01:16.343Z,38.43
2022-08-14T13:03:33.869Z,38.08
2022-08-14T13:05:56.439Z,37.78
2022-08-14T13:08:34.086Z,37.51
2022-08-14T13:10:58.094Z,37.87
2022-08-14T13:13:28.892Z,39.08
2022-08-14T13:15:56.128Z,40.29
2022-08-14T13:18:22.709Z,40.70
2022-08-14T13:20:49.790Z,41.06
2022-08-14T13:23:30.520Z,40.72
2022-08-14T13:25:55.925Z,40.36
2022-08-14T13:28:32.611Z,40.07
2022-08-14T13:30:57.029Z,40.84
2022-08-14T13:33:21.644Z,41.67
2022-08-14T13:35:47.540Z,42.21
2022-08-14T13:38:13.388Z,41.83
2022-08-14T13:40:35.398Z,41.39
2022-08-14T13:43:02.617Z,41.37
2022-08-14T13:45:33.659Z,41.06
2022-08-14T13:48:07.940Z,40.32
2022-08-14T13:50:45.582Z,39.90
2022-08-14T13:53:09.797Z,39.98
2022-08-14T13:55:32.354Z,39.75
2022-08-14T13:58:03.318Z,39.29
2022-08-14T14:00:32.539Z,38.98
2022-08-14T14:02:58.623Z,38.58
2022-08-14T14:05:21.075Z,37.98
2022-08-14T14:07:47.384Z,37.61
2022-08-14T14:10:16.950Z,37.25
2022-08-14T14:12:41.451Z,36.83
2022-08-14T14:15:09.595Z,36.14
2022-08-14T14:17:31.580Z,35.78
2022-08-14T14:19:54.173Z,35.36
2022-08-14T14:22:45.406Z,34.87
2022-08-14T14:24:57.577Z,34.57
2022-08-14T14:30:03.333Z,34.37
2022-08-14T14:32:52.666Z,34.31
2022-08-14T14:35:30.074Z,34.46
2022-08-14T14:37:56.291Z,34.67
2022-08-14T14:40:53.838Z,34.78
2022-08-14T14:43:03.879Z,35.36
2022-08-14T14:45:27.733Z,35.81
2022-08-14T14:47:59.320Z,36.81
2022-08-14T14:50:24.725Z,37.28
2022-08-14T14:52:49.590Z,37.52
2022-08-14T14:55:19.074Z,38.04
2022-08-14T14:57:44.578Z,38.31
2022-08-14T15:00:19.463Z,37.94
2022-08-14T15:02:44.233Z,38.00
2022-08-14T15:05:08.148Z,37.80
2022-08-14T15:07:30.018Z,37.61
2022-08-14T15:09:53.976Z,37.67
2022-08-14T15:12:27.878Z,37.75
2022-08-14T15:15:08.049Z,37.70
2022-08-14T15:17:40.845Z,37.71
2022-08-14T15:20:30.632Z,37.47
2022-08-14T15:22:52.845Z,37.03
2022-08-14T15:25:18.580Z,36.79
2022-08-14T15:27:44.187Z,36.61
2022-08-14T15:30:07.605Z,36.52
2022-08-14T15:32:29.509Z,35.95
2022-08-14T15:34:53.026Z,35.72
2022-08-14T15:37:16.596Z,35.69
2022-08-14T15:39:38.708Z,35.42
2022-08-14T15:42:09.321Z,34.97
2022-08-14T15:44:46.594Z,34.77
2022-08-14T15:47:28.429Z,34.41
2022-08-14T15:49:53.980Z,34.24
2022-08-14T15:52:32.527Z,34.16
2022-08-14T15:54:57.682Z,33.85
2022-08-14T15:57:21.167Z,33.80
2022-08-14T16:00:01.408Z,33.91
2022-08-14T16:02:27.574Z,34.15
2022-08-14T16:04:50.559Z,34.36
2022-08-14T16:07:13.325Z,35.00
2022-08-14T16:09:36.335Z,35.67
2022-08-14T16:11:57.843Z,36.03
2022-08-14T16:14:20.449Z,36.67
2022-08-14T16:16:49.915Z,37.16
2022-08-14T16:19:18.454Z,37.58
2022-08-14T16:22:01.192Z,38.23
2022-08-14T16:24:28.288Z,38.14
2022-08-14T16:26:51.748Z,38.52
2022-08-14T16:29:16.557Z,38.62
2022-08-14T16:31:43.025Z,38.42
2022-08-14T16:34:22.892Z,37.95
2022-08-14T16:36:51.012Z,37.75
2022-08-14T16:39:12.779Z,37.73
2022-08-14T16:41:36.189Z,37.59
2022-08-14T16:44:13.808Z,37.33
2022-08-14T16:46:45.622Z,37.55
2022-08-14T16:49:10.308Z,37.87
2022-08-14T16:51:36.307Z,38.04
2022-08-14T16:54:01.623Z,38.20
2022-08-14T16:56:25.619Z,38.56
2022-08-14T16:59:16.407Z,38.67
2022-08-14T17:01:40.540Z,38.94
2022-08-14T17:04:09.153Z,38.89
2022-08-14T17:06:42.975Z,38.65
2022-08-14T17:09:22.156Z,38.40
2022-08-14T17:11:54.564Z,38.34
2022-08-14T17:14:17.434Z,38.12
2022-08-14T17:16:41.560Z,37.87
2022-08-14T17:19:04.813Z,37.71
2022-08-14T17:21:31.316Z,37.24
2022-08-14T17:23:57.749Z,36.72
2022-08-14T17:26:43.522Z,36.45
2022-08-14T17:29:09.917Z,36.22
2022-08-14T17:31:57.753Z,35.65
2022-08-14T17:34:18.184Z,35.36
2022-08-14T17:36:42.205Z,35.17
2022-08-14T17:39:13.644Z,34.71
2022-08-14T17:41:43.863Z,34.53
2022-08-14T17:44:33.735Z,34.59
2022-08-14T17:47:08.201Z,34.65
2022-08-14T17:49:47.217Z,34.41
2022-08-14T17:52:34.752Z,34.47
2022-08-14T17:55:00.522Z,34.52
2022-08-14T17:57:25.956Z,34.24
2022-08-14T17:59:51.483Z,33.96
2022-08-14T18:02:16.623Z,33.77
2022-08-14T18:04:41.162Z,33.60
2022-08-14T18:07:16.852Z,33.28
2022-08-14T18:09:56.703Z,33.09
2022-08-14T18:12:31.826Z,32.90
2022-08-14T18:14:54.079Z,32.70
2022-08-14T18:17:16.361Z,32.54
2022-08-14T18:19:41.654Z,32.39
2022-08-14T18:22:32.915Z,32.29
2022-08-14T18:24:49.700Z,32.10
2022-08-14T18:27:14.873Z,31.99
2022-08-14T18:29:43.946Z,31.86
2022-08-14T18:32:31.364Z,31.68
2022-08-14T18:34:59.907Z,31.53
2022-08-14T18:37:21.628Z,31.41
2022-08-14T18:40:02.307Z,31.29
2022-08-14T18:42:30.484Z,31.19
2022-08-14T18:44:58.606Z,30.92
2022-08-14T18:47:25.608Z,30.61
2022-08-14T18:49:57.420Z,30.42
2022-08-14T18:52:41.688Z,30.27
2022-08-14T18:55:15.777Z,30.13
2022-08-14T18:57:58.572Z,29.95
2022-08-14T19:00:32.883Z,29.82
2022-08-14T19:02:55.804Z,29.70
2022-08-14T19:05:37.827Z,29.56
2022-08-14T19:08:22.059Z,29.44
2022-08-14T19:10:51.321Z,29.29
2022-08-14T19:13:20.418Z,29.07
2022-08-14T19:15:56.095Z,28.79
2022-08-14T19:18:26.415Z,28.58
2022-08-14T19:21:00.528Z,28.51
2022-08-14T19:23:43.186Z,28.44
2022-08-14T19:26:37.006Z,28.41
2022-08-14T19:29:20.079Z,28.35
2022-08-14T19:31:55.104Z,28.30
2022-08-14T19:34:52.589Z,28.11
2022-08-14T19:37:46.043Z,28.05
2022-08-14T19:40:15.083Z,27.95
2022-08-14T19:42:46.503Z,27.93
2022-08-14T19:45:14.590Z,27.89
2022-08-14T19:47:41.166Z,27.66
2022-08-14T19:50:08.373Z,27.59
2022-08-14T19:52:46.126Z,27.52
2022-08-14T19:55:19.878Z,27.34
2022-08-14T19:57:41.885Z,27.28
2022-08-14T20:00:27.951Z,27.24
2022-08-14T20:03:10.740Z,27.22
2022-08-14T20:05:39.944Z,27.11
2022-08-14T20:08:07.663Z,26.96
2022-08-14T20:11:04.708Z,26.97
2022-08-14T20:13:32.511Z,26.86
2022-08-14T20:15:54.523Z,26.73
2022-08-14T20:18:48.758Z,26.62
2022-08-14T20:21:07.474Z,26.54
2022-08-14T20:23:38.147Z,26.50
2022-08-14T20:26:00.575Z,26.42
2022-08-14T20:28:32.018Z,26.35
2022-08-14T20:31:15.685Z,26.28
2022-08-14T20:33:47.785Z,26.26
2022-08-14T20:36:16.211Z,26.26
2022-08-14T20:38:55.393Z,26.19
2022-08-14T20:41:20.079Z,26.18
2022-08-14T20:44:06.738Z,26.05
2022-08-14T20:46:39.010Z,25.96
2022-08-14T20:49:18.794Z,25.94
2022-08-14T20:51:58.719Z,25.91
2022-08-14T20:54:34.693Z,25.92
2022-08-14T20:57:18.830Z,25.93
2022-08-14T20:59:47.055Z,25.92
2022-08-14T21:02:30.393Z,25.89
2022-08-14T21:05:00.577Z,25.76
2022-08-14T21:07:36.061Z,25.57
2022-08-14T21:10:36.160Z,25.49
2022-08-14T21:13:26.552Z,25.42
2022-08-14T21:15:40.856Z,25.35
2022-08-14T21:18:02.407Z,25.32
2022-08-14T21:20:26.761Z,25.23
2022-08-14T21:22:50.647Z,25.12
2022-08-14T21:25:13.238Z,24.97
2022-08-14T21:27:37.421Z,24.86
2022-08-14T21:29:59.771Z,24.81
2022-08-14T21:32:47.063Z,24.81
2022-08-14T21:35:13.503Z,24.74
2022-08-14T21:37:47.443Z,24.73
2022-08-14T21:40:40.833Z,24.74
2022-08-14T21:42:52.323Z,24.71
2022-08-14T21:45:14.690Z,24.77
2022-08-14T21:47:36.428Z,24.72
2022-08-14T21:49:58.297Z,24.69
2022-08-14T21:52:52.077Z,24.69
2022-08-14T21:55:09.826Z,24.62
2022-08-14T21:58:45.916Z,24.56
2022-08-14T22:00:30.563Z,24.51
2022-08-14T22:02:57.607Z,24.51
2022-08-14T22:05:22.151Z,24.48
2022-08-14T22:07:44.550Z,24.45
2022-08-14T22:10:09.839Z,24.45
2022-08-14T22:12:58.793Z,24.46
2022-08-14T22:15:17.920Z,24.47
2022-08-14T22:17:40.392Z,24.46
2022-08-14T22:20:12.248Z,24.49
2022-08-14T22:22:40.324Z,24.46
2022-08-14T22:25:04.978Z,24.55
2022-08-14T22:27:26.666Z,24.48
2022-08-14T22:29:54.852Z,24.45
2022-08-14T22:32:19.795Z,24.44
2022-08-14T22:34:48.590Z,24.45
2022-08-14T22:37:10.404Z,24.45
2022-08-14T22:40:54.604Z,24.40
2022-08-14T22:42:21.095Z,24.38
2022-08-14T22:44:44.384Z,24.40
2022-08-14T22:47:07.355Z,24.38
2022-08-14T22:50:31.239Z,24.19
2022-08-14T22:52:31.648Z,24.13
2022-08-14T22:54:54.077Z,24.05
2022-08-14T22:57:15.711Z,24.01
2022-08-14T22:59:38.953Z,24.01
2022-08-14T23:02:04.106Z,24.08
2022-08-14T23:04:34.950Z,24.00
2022-08-14T23:07:07.445Z,23.98
2022-08-14T23:09:38.172Z,23.85
2022-08-14T23:12:02.006Z,23.82
2022-08-14T23:14:26.822Z,23.78
2022-08-14T23:16:57.285Z,23.61
2022-08-14T23:19:20.571Z,23.56
2022-08-14T23:21:46.189Z,23.46
2022-08-14T23:24:09.367Z,23.48
2022-08-14T23:26:48.811Z,23.42
2022-08-14T23:29:13.467Z,23.42
2022-08-14T23:31:39.378Z,23.37
2022-08-14T23:34:01.899Z,23.36
2022-08-14T23:36:36.958Z,23.32
2022-08-14T23:39:18.978Z,23.29
2022-08-14T23:41:46.576Z,23.27
2022-08-14T23:44:15.014Z,23.20
2022-08-14T23:46:36.476Z,23.14
2022-08-14T23:49:01.253Z,23.12
2022-08-14T23:51:23.403Z,23.11
2022-08-14T23:53:51.435Z,23.11
2022-08-14T23:56:20.341Z,22.96
2022-08-14T23:58:54.769Z,22.90
